Time,TemperatureF,DewpointF,PressureIn,WindDirection,WindDirectionDegrees,WindSpeedMPH,WindSpeedGustMPH,Humidity,HourlyPrecipIn,Conditions,Clouds,dailyrainin,SoftwareType,DateUTC
2013-02-16 00:02:00,10.0,7.0,30.29,North,0,0.0,-999.0,85,-99.99,,,-99.99,,2013-02-16 06:02:00,
2013-02-16 00:11:00,10.0,7.0,30.28,North,0,0.0,-999.0,85,-99.99,,,-99.99,,2013-02-16 06:11:00,
2013-02-16 00:21:00,10.0,7.0,30.28,North,0,0.0,-999.0,85,-99.99,,,-99.99,,2013-02-16 06:21:00,
2013-02-16 00:32:00,10.0,7.0,30.28,North,0,0.0,-999.0,85,-99.99,,,-99.99,,2013-02-16 06:32:00,
2013-02-16 00:42:00,10.0,7.0,30.28,North,0,0.0,-999.0,85,-99.99,,,-99.99,,2013-02-16 06:42:00,
2013-02-16 00:51:00,10.0,7.0,30.28,North,0,0.0,-999.0,85,-99.99,,,-99.99,,2013-02-16 06:51:00,
2013-02-16 01:02:00,10.0,7.0,30.28,North,0,0.0,-999.0,85,-99.99,,,-99.99,,2013-02-16 07:02:00,
2013-02-16 01:11:00,10.0,7.0,30.27,North,0,0.0,-999.0,85,-99.99,,,-99.99,,2013-02-16 07:11:00,
2013-02-16 01:21:00,10.0,7.0,30.27,North,0,0.0,-999.0,85,-99.99,,,-99.99,,2013-02-16 07:21:00,
2013-02-16 01:31:00,10.0,9.0,30.26,North,0,0.0,-999.0,92,-99.99,,,-99.99,,2013-02-16 07:31:00,
2013-02-16 01:42:00,10.0,9.0,30.26,North,0,0.0,-999.0,92,-99.99,,,-99.99,,2013-02-16 07:42:00,
2013-02-16 01:52:00,10.0,9.0,30.25,North,0,0.0,-999.0,92,-99.99,,,-99.99,,2013-02-16 07:52:00,
2013-02-16 02:01:00,10.0,9.0,30.25,North,0,0.0,-999.0,92,-99.99,,,-99.99,,2013-02-16 08:01:00,
2013-02-16 02:11:00,10.0,9.0,30.25,North,0,0.0,-999.0,92,-99.99,,,-99.99,,2013-02-16 08:11:00,
2013-02-16 02:21:00,10.0,9.0,30.25,North,0,0.0,-999.0,92,-99.99,,,-99.99,,2013-02-16 08:21:00,
2013-02-16 02:31:00,10.0,9.0,30.24,North,0,0.0,-999.0,92,-99.99,,,-99.99,,2013-02-16 08:31:00,
2013-02-16 02:42:00,10.0,9.0,30.24,North,0,0.0,-999.0,92,-99.99,,,-99.99,,2013-02-16 08:42:00,
2013-02-16 02:52:00,10.0,7.0,30.23,North,0,0.0,-999.0,85,-99.99,,,-99.99,,2013-02-16 08:52:00,
2013-02-16 03:01:00,10.0,7.0,30.23,North,0,0.0,-999.0,85,-99.99,,,-99.99,,2013-02-16 09:01:00,
2013-02-16 03:11:00,10.0,7.0,30.23,North,0,0.0,-999.0,85,-99.99,,,-99.99,,2013-02-16 09:11:00,
2013-02-16 03:21:00,10.0,7.0,30.22,North,0,0.0,-999.0,85,-99.99,,,-99.99,,2013-02-16 09:21:00,
2013-02-16 03:31:00,10.0,7.0,30.21,North,0,0.0,-999.0,85,-99.99,,,-99.99,,2013-02-16 09:31:00,
2013-02-16 03:42:00,10.0,7.0,30.21,North,0,0.0,-999.0,85,-99.99,,,-99.99,,2013-02-16 09:42:00,
2013-02-16 03:51:00,10.0,7.0,30.21,North,0,0.0,-999.0,85,-99.99,,,-99.99,,2013-02-16 09:51:00,
2013-02-16 04:01:00,10.0,7.0,30.21,North,0,0.0,-999.0,85,-99.99,,,-99.99,,2013-02-16 10:01:00,
2013-02-16 04:11:00,12.0,9.0,30.20,North,0,0.0,-999.0,85,-99.99,,,-99.99,,2013-02-16 10:11:00,
2013-02-16 04:21:00,12.0,9.0,30.20,North,0,0.0,-999.0,85,-99.99,,,-99.99,,2013-02-16 10:21:00,
2013-02-16 04:31:00,12.0,9.0,30.19,North,0,0.0,-999.0,85,-99.99,,,-99.99,,2013-02-16 10:31:00,
2013-02-16 04:42:00,12.0,9.0,30.19,North,0,0.0,-999.0,85,-99.99,,,-99.99,,2013-02-16 10:42:00,
2013-02-16 04:51:00,12.0,9.0,30.19,North,0,0.0,-999.0,85,-99.99,,,-99.99,,2013-02-16 10:51:00,
2013-02-16 05:02:00,12.0,9.0,30.19,North,0,0.0,-999.0,85,-99.99,,,-99.99,,2013-02-16 11:02:00,
2013-02-16 05:11:00,12.0,10.0,30.18,North,0,0.0,-999.0,92,-99.99,,,-99.99,,2013-02-16 11:11:00,
2013-02-16 05:22:00,12.0,10.0,30.18,North,0,0.0,-999.0,92,-99.99,,,-99.99,,2013-02-16 11:22:00,
2013-02-16 05:32:00,12.0,10.0,30.17,North,0,0.0,-999.0,92,-99.99,,,-99.99,,2013-02-16 11:32:00,
2013-02-16 05:42:00,12.0,10.0,30.17,North,0,0.0,-999.0,92,-99.99,,,-99.99,,2013-02-16 11:42:00,
2013-02-16 05:52:00,12.0,10.0,30.17,North,0,0.0,-999.0,92,-99.99,,,-99.99,,2013-02-16 11:52:00,
2013-02-16 06:01:00,12.0,10.0,30.17,North,0,0.0,-999.0,92,-99.99,,,-99.99,,2013-02-16 12:01:00,
2013-02-16 06:12:00,12.0,10.0,30.16,North,0,0.0,-999.0,92,-99.99,,,-99.99,,2013-02-16 12:12:00,
2013-02-16 06:22:00,12.0,10.0,30.16,North,0,0.0,-999.0,92,-99.99,,,-99.99,,2013-02-16 12:22:00,
2013-02-16 06:32:00,12.0,10.0,30.15,North,0,0.0,-999.0,92,-99.99,,,-99.99,,2013-02-16 12:32:00,
2013-02-16 06:42:00,12.0,10.0,30.15,North,0,0.0,-999.0,92,-99.99,,,-99.99,,2013-02-16 12:42:00,
2013-02-16 06:52:00,14.0,10.0,30.14,North,0,0.0,-999.0,85,-99.99,,,-99.99,,2013-02-16 12:52:00,
2013-02-16 07:02:00,14.0,10.0,30.14,North,0,0.0,-999.0,85,-99.99,,,-99.99,,2013-02-16 13:02:00,
2013-02-16 07:11:00,14.0,10.0,30.13,North,0,0.0,-999.0,85,-99.99,,,-99.99,,2013-02-16 13:11:00,
2013-02-16 07:21:00,14.0,10.0,30.13,North,0,0.0,-999.0,85,-99.99,,,-99.99,,2013-02-16 13:21:00,
2013-02-16 07:31:00,14.0,10.0,30.13,North,0,0.0,-999.0,85,-99.99,,,-99.99,,2013-02-16 13:31:00,
2013-02-16 07:41:00,14.0,10.0,30.13,North,0,0.0,-999.0,85,-99.99,,,-99.99,,2013-02-16 13:41:00,
2013-02-16 07:51:00,14.0,10.0,30.13,North,0,0.0,-999.0,85,-99.99,,,-99.99,,2013-02-16 13:51:00,
2013-02-16 08:01:00,14.0,10.0,30.13,North,0,0.0,-999.0,85,-99.99,,,-99.99,,2013-02-16 14:01:00,
2013-02-16 08:11:00,14.0,10.0,30.12,North,0,0.0,-999.0,85,-99.99,,,-99.99,,2013-02-16 14:11:00,
2013-02-16 08:21:00,14.0,10.0,30.12,North,0,0.0,-999.0,85,-99.99,,,-99.99,,2013-02-16 14:21:00,
2013-02-16 08:32:00,16.0,10.0,30.12,North,0,0.0,-999.0,78,-99.99,,,-99.99,,2013-02-16 14:32:00,
2013-02-16 08:41:00,16.0,10.0,30.12,North,0,0.0,-999.0,78,-99.99,,,-99.99,,2013-02-16 14:41:00,
2013-02-16 08:52:00,16.0,12.0,30.11,ESE,120,5.0,-999.0,85,-99.99,,,-99.99,,2013-02-16 14:52:00,
2013-02-16 09:01:00,16.0,12.0,30.11,ESE,120,5.0,-999.0,85,-99.99,,,-99.99,,2013-02-16 15:01:00,
2013-02-16 09:11:00,18.0,12.0,30.11,SSE,160,5.0,-999.0,78,-99.99,,,-99.99,,2013-02-16 15:11:00,
2013-02-16 09:21:00,18.0,12.0,30.11,SSE,160,5.0,-999.0,78,-99.99,,,-99.99,,2013-02-16 15:21:00,
2013-02-16 09:32:00,19.0,14.0,30.10,SSE,160,6.0,-999.0,79,-99.99,,,-99.99,,2013-02-16 15:32:00,
2013-02-16 09:42:00,19.0,14.0,30.10,SSE,160,6.0,-999.0,79,-99.99,,,-99.99,,2013-02-16 15:42:00,
2013-02-16 09:51:00,19.0,14.0,30.10,SE,140,9.0,-999.0,79,-99.99,,,-99.99,,2013-02-16 15:51:00,
2013-02-16 10:01:00,19.0,14.0,30.10,SE,140,9.0,-999.0,79,-99.99,,,-99.99,,2013-02-16 16:01:00,
2013-02-16 10:11:00,19.0,14.0,30.10,SE,140,9.0,-999.0,79,-99.99,,,-99.99,,2013-02-16 16:11:00,
2013-02-16 10:21:00,21.0,16.0,30.10,South,170,9.0,-999.0,79,-99.99,,,-99.99,,2013-02-16 16:21:00,
2013-02-16 10:32:00,25.0,18.0,30.10,South,170,7.0,-999.0,73,-99.99,,,-99.99,,2013-02-16 16:32:00,
2013-02-16 10:42:00,25.0,18.0,30.10,South,170,7.0,-999.0,73,-99.99,,,-99.99,,2013-02-16 16:42:00,
2013-02-16 10:51:00,25.0,18.0,30.09,SE,130,8.0,-999.0,73,-99.99,,,-99.99,,2013-02-16 16:51:00,
2013-02-16 11:01:00,25.0,18.0,30.09,SE,130,8.0,-999.0,73,-99.99,,,-99.99,,2013-02-16 17:01:00,
2013-02-16 11:11:00,25.0,18.0,30.09,SE,140,10.0,-999.0,73,-99.99,,,-99.99,,2013-02-16 17:11:00,
2013-02-16 11:22:00,25.0,18.0,30.09,SE,140,10.0,-999.0,73,-99.99,,,-99.99,,2013-02-16 17:22:00,
2013-02-16 11:32:00,27.0,19.0,30.08,South,180,9.0,-999.0,73,-99.99,,,-99.99,,2013-02-16 17:32:00,
2013-02-16 11:42:00,27.0,19.0,30.08,South,180,9.0,-999.0,73,-99.99,,,-99.99,,2013-02-16 17:42:00,
2013-02-16 11:52:00,28.0,19.0,30.08,SE,130,9.0,-999.0,68,-99.99,,,-99.99,,2013-02-16 17:52:00,
2013-02-16 12:02:00,28.0,19.0,30.08,SE,130,9.0,-999.0,68,-99.99,,,-99.99,,2013-02-16 18:02:00,
2013-02-16 12:11:00,28.0,19.0,30.08,SSE,150,9.0,-999.0,68,-99.99,,,-99.99,,2013-02-16 18:11:00,
2013-02-16 12:21:00,28.0,19.0,30.08,SSE,150,9.0,-999.0,68,-99.99,,,-99.99,,2013-02-16 18:21:00,
2013-02-16 12:33:00,30.0,19.0,30.07,SSE,150,6.0,-999.0,63,-99.99,,,-99.99,,2013-02-16 18:33:00,
2013-02-16 12:42:00,30.0,19.0,30.07,SSE,150,6.0,-999.0,63,-99.99,,,-99.99,,2013-02-16 18:42:00,
2013-02-16 12:51:00,30.0,21.0,30.06,SE,140,8.0,-999.0,68,-99.99,,,-99.99,,2013-02-16 18:51:00,
2013-02-16 13:02:00,30.0,21.0,30.06,SE,140,8.0,-999.0,68,-99.99,,,-99.99,,2013-02-16 19:02:00,
2013-02-16 13:11:00,32.0,21.0,30.06,North,0,0.0,-999.0,63,-99.99,,,-99.99,,2013-02-16 19:11:00,
2013-02-16 13:21:00,32.0,21.0,30.06,North,0,0.0,-999.0,63,-99.99,,,-99.99,,2013-02-16 19:21:00,
2013-02-16 13:31:00,32.0,21.0,30.05,SE,140,8.0,-999.0,63,-99.99,,,-99.99,,2013-02-16 19:31:00,
2013-02-16 13:42:00,32.0,21.0,30.05,SE,140,8.0,-999.0,63,-99.99,,,-99.99,,2013-02-16 19:42:00,
2013-02-16 13:52:00,34.0,23.0,30.04,SE,140,8.0,-999.0,64,-99.99,,,-99.99,,2013-02-16 19:52:00,
2013-02-16 14:01:00,34.0,23.0,30.04,SE,140,8.0,-999.0,64,-99.99,,,-99.99,,2013-02-16 20:01:00,
2013-02-16 14:11:00,34.0,25.0,30.03,North,350,10.0,-999.0,69,-99.99,,,-99.99,,2013-02-16 20:11:00,
2013-02-16 14:21:00,34.0,25.0,30.03,North,350,10.0,-999.0,69,-99.99,,,-99.99,,2013-02-16 20:21:00,
2013-02-16 14:32:00,34.0,25.0,30.03,SSE,160,10.0,-999.0,69,-99.99,,,-99.99,,2013-02-16 20:32:00,
2013-02-16 14:42:00,34.0,25.0,30.03,SSE,160,10.0,-999.0,69,-99.99,,,-99.99,,2013-02-16 20:42:00,
2013-02-16 14:52:00,36.0,25.0,30.02,South,170,9.0,-999.0,64,-99.99,,,-99.99,,2013-02-16 20:52:00,
2013-02-16 15:02:00,36.0,25.0,30.02,South,170,9.0,-999.0,64,-99.99,,,-99.99,,2013-02-16 21:02:00,
2013-02-16 15:11:00,34.0,25.0,30.03,South,190,8.0,-999.0,69,-99.99,,,-99.99,,2013-02-16 21:11:00,
2013-02-16 15:21:00,34.0,25.0,30.03,South,190,8.0,-999.0,69,-99.99,,,-99.99,,2013-02-16 21:21:00,
2013-02-16 15:31:00,34.0,25.0,30.03,SSW,210,12.0,17.0,69,-99.99,,,-99.99,,2013-02-16 21:31:00,
2013-02-16 15:41:00,34.0,25.0,30.03,SSW,210,12.0,17.0,69,-99.99,,,-99.99,,2013-02-16 21:41:00,
2013-02-16 15:52:00,34.0,25.0,30.03,South,190,10.0,-999.0,69,-99.99,,,-99.99,,2013-02-16 21:52:00,
2013-02-16 16:01:00,34.0,25.0,30.03,South,190,10.0,-999.0,69,-99.99,,,-99.99,,2013-02-16 22:01:00,
2013-02-16 16:11:00,34.0,25.0,30.03,South,170,7.0,-999.0,69,-99.99,,,-99.99,,2013-02-16 22:11:00,
2013-02-16 16:21:00,34.0,25.0,30.03,South,170,7.0,-999.0,69,-99.99,,,-99.99,,2013-02-16 22:21:00,
2013-02-16 16:32:00,34.0,25.0,30.02,SSE,150,7.0,-999.0,69,-99.99,,,-99.99,,2013-02-16 22:32:00,
2013-02-16 16:42:00,34.0,25.0,30.02,SSE,150,7.0,-999.0,69,-99.99,,,-99.99,,2013-02-16 22:42:00,
2013-02-16 16:51:00,34.0,27.0,30.03,SSE,160,9.0,-999.0,74,-99.99,,,-99.99,,2013-02-16 22:51:00,
2013-02-16 17:02:00,34.0,27.0,30.03,SSE,160,9.0,-999.0,74,-99.99,,,-99.99,,2013-02-16 23:02:00,
2013-02-16 17:11:00,34.0,27.0,30.03,SSE,160,9.0,-999.0,74,-99.99,,,-99.99,,2013-02-16 23:11:00,
2013-02-16 17:21:00,34.0,27.0,30.03,South,170,7.0,-999.0,74,-99.99,,,-99.99,,2013-02-16 23:21:00,
2013-02-16 17:31:00,34.0,27.0,30.03,South,180,9.0,-999.0,74,-99.99,,,-99.99,,2013-02-16 23:31:00,
2013-02-16 17:42:00,34.0,27.0,30.03,South,180,9.0,-999.0,74,-99.99,,,-99.99,,2013-02-16 23:42:00,
2013-02-16 17:52:00,34.0,27.0,30.03,SSE,150,6.0,-999.0,74,-99.99,,,-99.99,,2013-02-16 23:52:00,
2013-02-16 18:02:00,34.0,27.0,30.03,SSE,150,6.0,-999.0,74,-99.99,,,-99.99,,2013-02-17 00:02:00,
2013-02-16 18:12:00,34.0,27.0,30.03,South,170,7.0,-999.0,74,-99.99,,,-99.99,,2013-02-17 00:12:00,
2013-02-16 18:22:00,34.0,27.0,30.03,South,170,7.0,-999.0,74,-99.99,,,-99.99,,2013-02-17 00:22:00,
2013-02-16 18:32:00,32.0,27.0,30.03,SSE,160,7.0,-999.0,80,-99.99,,,-99.99,,2013-02-17 00:32:00,
2013-02-16 18:41:00,32.0,27.0,30.03,SSE,160,7.0,-999.0,80,-99.99,,,-99.99,,2013-02-17 00:41:00,
2013-02-16 18:51:00,32.0,27.0,30.03,SSE,160,5.0,-999.0,80,-99.99,,,-99.99,,2013-02-17 00:51:00,
2013-02-16 19:01:00,32.0,27.0,30.03,SSE,160,5.0,-999.0,80,-99.99,,,-99.99,,2013-02-17 01:01:00,
2013-02-16 19:11:00,32.0,27.0,30.03,South,170,6.0,-999.0,80,-99.99,,,-99.99,,2013-02-17 01:11:00,
2013-02-16 19:21:00,32.0,27.0,30.03,South,170,6.0,-999.0,80,-99.99,,,-99.99,,2013-02-17 01:21:00,
2013-02-16 19:31:00,32.0,27.0,30.03,SSE,150,7.0,-999.0,80,-99.99,,,-99.99,,2013-02-17 01:31:00,
2013-02-16 19:41:00,32.0,27.0,30.03,SSE,150,7.0,-999.0,80,-99.99,,,-99.99,,2013-02-17 01:41:00,
2013-02-16 19:52:00,32.0,27.0,30.03,SSE,150,8.0,-999.0,80,-99.99,,,-99.99,,2013-02-17 01:52:00,
2013-02-16 20:01:00,32.0,27.0,30.03,SSE,150,8.0,-999.0,80,-99.99,,,-99.99,,2013-02-17 02:01:00,
2013-02-16 20:11:00,32.0,27.0,30.02,SSE,150,6.0,-999.0,80,-99.99,,,-99.99,,2013-02-17 02:11:00,
2013-02-16 20:21:00,32.0,27.0,30.02,SSE,150,6.0,-999.0,80,-99.99,,,-99.99,,2013-02-17 02:21:00,
2013-02-16 20:31:00,32.0,27.0,30.02,SE,140,7.0,-999.0,80,-99.99,,,-99.99,,2013-02-17 02:31:00,
2013-02-16 20:41:00,32.0,27.0,30.02,SE,140,7.0,-999.0,80,-99.99,,,-99.99,,2013-02-17 02:41:00,
2013-02-16 20:52:00,30.0,27.0,30.02,SSE,150,6.0,-999.0,86,-99.99,,,-99.99,,2013-02-17 02:52:00,
2013-02-16 21:02:00,30.0,27.0,30.02,SSE,150,6.0,-999.0,86,-99.99,,,-99.99,,2013-02-17 03:02:00,
2013-02-16 21:11:00,30.0,27.0,30.01,SSE,150,6.0,-999.0,86,-99.99,,,-99.99,,2013-02-17 03:11:00,
2013-02-16 21:21:00,30.0,27.0,30.01,SSE,150,6.0,-999.0,86,-99.99,,,-99.99,,2013-02-17 03:21:00,
2013-02-16 21:31:00,30.0,25.0,30.02,SSE,160,5.0,-999.0,80,-99.99,,,-99.99,,2013-02-17 03:31:00,
2013-02-16 21:42:00,30.0,25.0,30.02,SSE,160,5.0,-999.0,80,-99.99,,,-99.99,,2013-02-17 03:42:00,
2013-02-16 21:51:00,28.0,25.0,30.02,SE,140,8.0,-999.0,86,-99.99,,,-99.99,,2013-02-17 03:51:00,
2013-02-16 22:01:00,28.0,25.0,30.02,SE,140,8.0,-999.0,86,-99.99,,,-99.99,,2013-02-17 04:01:00,
2013-02-16 22:11:00,28.0,25.0,30.02,SSE,150,7.0,-999.0,86,-99.99,,,-99.99,,2013-02-17 04:11:00,
2013-02-16 22:21:00,28.0,25.0,30.02,SSE,150,7.0,-999.0,86,-99.99,,,-99.99,,2013-02-17 04:21:00,
2013-02-16 22:31:00,28.0,25.0,30.01,SE,140,8.0,-999.0,86,-99.99,,,-99.99,,2013-02-17 04:31:00,
2013-02-16 22:41:00,28.0,25.0,30.01,SE,140,8.0,-999.0,86,-99.99,,,-99.99,,2013-02-17 04:41:00,
2013-02-16 22:51:00,28.0,25.0,30.01,SSE,150,5.0,-999.0,86,-99.99,,,-99.99,,2013-02-17 04:51:00,
2013-02-16 23:02:00,28.0,25.0,30.01,SSE,150,5.0,-999.0,86,-99.99,,,-99.99,,2013-02-17 05:02:00,
2013-02-16 23:12:00,28.0,25.0,30.01,SSE,150,5.0,-999.0,86,-99.99,,,-99.99,,2013-02-17 05:12:00,
2013-02-16 23:22:00,28.0,25.0,30.01,SSE,150,5.0,-999.0,86,-99.99,,,-99.99,,2013-02-17 05:22:00,
2013-02-16 23:33:00,28.0,25.0,30.01,SSE,160,8.0,-999.0,86,-99.99,,,-99.99,,2013-02-17 05:33:00,
2013-02-16 23:42:00,28.0,25.0,30.01,SSE,160,8.0,-999.0,86,-99.99,,,-99.99,,2013-02-17 05:42:00,
2013-02-16 23:52:00,28.0,25.0,30.00,SSE,150,10.0,16.0,86,-99.99,,,-99.99,,2013-02-17 05:52:00,